Impacts TAF Board
For situational awareness. Not to be used for flight planning purposes.
IDs:

KSLC - Salt Lake City Intl, UT, US

Issued at 0027 UTC 24 May 2019
Updated at 0138 UTC 24 May 2019
Potential Impact None Slight Moderate High
Time0054Z 24/02Z 24/03Z 24/04Z 24/05Z 24/06Z 24/07Z 24/08Z 24/09Z 24/10Z 24/11Z 24/12Z 24/13Z 24/14Z>>
Type OBS PRVL PRVL PRVL PRVL PRVL PRVL PRVL PRVL PRVL PRVL PRVL PRVL PRVL
VIS 9 >6 >6 >6 >6 >6 >6 >6 >6 >6 >6 >6 >6 5
CIG 43 45 80 80 80 80 40 40 40 40 40 40 40 35
Cover OVC BKN BKN BKN BKN BKN OVC OVC OVC OVC OVC OVC OVC OVC
FltCat VFR VFR VFR VFR VFR VFR VFR VFR VFR VFR VFR VFR VFR MVFR
WX -RA -SHRA VCSH VCSH VCSH VCSH -RA -RA -RA -RA -RA -RA -RA -RA
WDir 150 140 160 160 160 160 150 150 150 150 150 150 150 250
WSpd 13 10 10 10 10 10 7 7 7 7 7 7 7 7
WGst -- -- -- -- -- -- -- -- -- -- -- -- -- --
Raw TAF
KSLC 240027Z 2400/2506 14010KT P6SM -SHRA SCT025 BKN045
  FM240300 16010KT P6SM VCSH SCT040 BKN080
  FM240700 15007KT P6SM -RA SCT025 OVC040
  FM241400 25007KT 5SM -RA SCT022 OVC035
  FM241700 17009KT P6SM VCSH SCT035 OVC060
  FM250100 15007KT P6SM SCT050 BKN090


Raw METAR
KSLC 240054Z 15013KT 9SM -RA FEW026 BKN043 OVC060 09/06 A2983 RMK AO2 RAB19 SLP085 P0000 T00890056 VISNO NW RNWY
KSLC 232354Z 16011KT 10SM SCT060 BKN070 BKN100 10/05 A2982 RMK AO2 RAE24 SLP080 VCSH BINOVC P0000 60019 T01000050 10139 20072 53008 VISNO NW RNWY
KSLC 232254Z 14004KT 10SM -RA FEW028 SCT046 BKN070 09/04 A2980 RMK AO2 LTG DSNT SE RAE28B51 SLP072 CB DSNT SE-SW BINOVC P0002 T00940044 VISNO NW RNWY

METAR Board
Radar Display
Forecast Discussion
For situational awareness. Not to be used for flight planning purposes.